Terminal Aerodrome Forecast
Issued by NWS Quad Cities IA IL

Home | Current Version | Previous Version | Text Only | Print | Product List | Glossary On
Versions: 1 2 3 4 5 6 7 8 9 10 11 12 13 14 15 16 17 18
000
FTUS43 KDVN 221700
TAFDBQ
TAF
KDBQ 221720Z 2218/2318 33012G21KT P6SM SKC
     FM222200 35009KT P6SM SCT250
     FM230700 08005KT P6SM SCT120 BKN250
     FM231500 15010KT P6SM OVC100=

USA.gov is the U.S. government's official web portal to all federal, state and local government web resources and services.